Stations météo

réclame
Mon MeteoGroup
Lus-La-Croix-Haute, France (7587): Température de l'air & dewpoint: 11.12.2018 06:00:00 - 17.12.2018 06:00:00 (CET)Lus-La-Croix-Haute, France (7587): Vitesse du vent & gusts: 11.12.2018 06:00:00 - 17.12.2018 06:00:00 (CET)Lus-La-Croix-Haute, France (7587): Direction du vent: 11.12.2018 06:00:00 - 17.12.2018 06:00:00 (CET)Lus-La-Croix-Haute, France (7587): Quantités de précipitations: 11.12.2018 06:00:00 - 17.12.2018 06:00:00 (CET)
Date & Time tt [°C] td [°C] ff [km/h] ff [knt] fx [km/h] fx [knt] dd rr [mm]
17.12.2018 06:00:00 - - - - - - - -
17.12.2018 05:00:00 1,3 0,9 11 6 34 18 NNW 0,0
17.12.2018 04:00:00 1,0 0,7 16 9 31 17 NW 0,0
17.12.2018 03:00:00 0,2 -0,1 4 2 16 9 WSW 0,0
17.12.2018 02:00:00 0,2 -0,1 2 1 8 4 NNE 0,0
17.12.2018 01:00:00 0,2 -0,1 0 0 11 6 N -
17.12.2018 00:00:00 0,4 0,3 4 2 15 8 NNE 0,0
16.12.2018 23:00:00 0,2 -0,1 4 2 8 4 E 0,0
16.12.2018 22:00:00 0,2 -0,2 0 0 5 3 N 0,0
16.12.2018 21:00:00 0,6 0,2 4 2 4 2 ESE 0,0
16.12.2018 20:00:00 1,1 0,8 2 1 9 5 NNE 0,0
16.12.2018 19:00:00 1,0 0,7 4 2 9 5 SSE -
16.12.2018 18:00:00 0,9 0,6 2 1 8 4 SSE 0,0
16.12.2018 17:00:00 1,0 0,7 2 1 8 4 W 0,0
16.12.2018 16:00:00 1,3 1,0 4 2 8 4 NW 0,0
16.12.2018 15:00:00 1,2 0,9 4 2 8 4 WNW 0,0
16.12.2018 14:00:00 1,3 1,0 2 1 9 5 S 0,0
16.12.2018 13:00:00 1,0 0,7 2 1 8 4 S -
16.12.2018 12:00:00 0,6 0,3 4 2 8 4 W 0,2
16.12.2018 11:00:00 0,4 0,1 4 2 9 5 ESE 0,0
16.12.2018 10:00:00 0,3 0,0 4 2 11 6 SSE 0,0
16.12.2018 09:00:00 0,3 0,0 4 2 21 11 E 0,0
16.12.2018 08:00:00 0,2 -0,1 4 2 9 5 S 0,0
16.12.2018 07:00:00 0,2 -0,2 4 2 9 5 W -
16.12.2018 06:00:00 0,2 -0,2 2 1 8 4 E 0,0
16.12.2018 05:00:00 0,1 -0,5 2 1 4 2 N 0,0
16.12.2018 04:00:00 0,0 -0,7 0 0 8 4 N 0,0
16.12.2018 03:00:00 -0,2 -0,9 4 2 8 4 S 0,0
16.12.2018 02:00:00 -0,5 -1,5 2 1 8 4 NW 0,0
16.12.2018 01:00:00 -0,6 -1,7 4 2 8 4 NE -
16.12.2018 00:00:00 -0,7 -2,4 2 1 8 4 SW 0,0
15.12.2018 23:00:00 -0,8 -3,0 2 1 4 2 SE 0,0
15.12.2018 22:00:00 -0,3 -3,0 0 0 4 2 N 0,0
15.12.2018 21:00:00 -0,1 -4,9 0 0 4 2 N 0,0
15.12.2018 20:00:00 -0,1 -5,9 0 0 5 3 N 0,0
15.12.2018 19:00:00 0,2 -6,4 2 1 5 3 SSE -
15.12.2018 18:00:00 0,8 -8,0 4 2 24 13 WNW 0,0
15.12.2018 17:00:00 1,2 -9,2 8 4 22 12 N 0,0
15.12.2018 16:00:00 1,8 -6,8 4 2 18 10 WNW 0,0
15.12.2018 15:00:00 2,0 -10,9 15 8 34 18 N 0,0
15.12.2018 14:00:00 1,7 -9,0 16 9 31 17 NNW 0,0
15.12.2018 13:00:00 2,4 -8,6 8 4 22 12 NNW -
15.12.2018 12:00:00 0,4 -6,0 4 2 18 10 NNW 0,0
15.12.2018 11:00:00 -0,9 -6,7 4 2 22 12 S 0,0
15.12.2018 10:00:00 -2,3 -6,7 8 4 37 20 SE 0,0
15.12.2018 09:00:00 -5,2 -7,2 13 7 41 22 NNW 0,0
15.12.2018 08:00:00 -5,2 -7,0 15 8 37 20 NNW 0,0
15.12.2018 07:00:00 -5,0 -6,8 16 9 35 19 NW -
15.12.2018 06:00:00 -4,7 -7,1 15 8 35 19 NW 0,0
15.12.2018 05:00:00 -4,5 -7,0 16 9 35 19 NW 0,0
15.12.2018 04:00:00 -4,2 -7,0 16 9 34 18 NW 0,0
15.12.2018 03:00:00 -3,6 -6,4 15 8 48 26 NW 0,0
15.12.2018 02:00:00 -3,4 -6,5 16 9 39 21 NNW 0,0
15.12.2018 01:00:00 -3,5 -6,5 18 10 35 19 NNW -
15.12.2018 00:00:00 -3,3 -6,3 13 7 31 17 NNW 0,0
14.12.2018 23:00:00 -2,9 -6,0 16 9 35 19 NW 0,0
14.12.2018 22:00:00 -2,5 -5,5 13 7 29 16 NNW 0,0
14.12.2018 21:00:00 -2,2 -5,0 15 8 44 24 NNW 0,0
14.12.2018 20:00:00 -2,0 -4,8 11 6 39 21 NNW 0,0
14.12.2018 19:00:00 -1,7 -4,0 18 10 41 22 NNW -
14.12.2018 18:00:00 -1,4 -3,9 16 9 34 18 NNW 0,0
14.12.2018 17:00:00 -1,1 -3,8 16 9 39 21 NW 0,0
14.12.2018 16:00:00 0,0 -3,2 15 8 39 21 NW 0,0
14.12.2018 15:00:00 2,5 -2,8 13 7 34 18 NNW 0,0
14.12.2018 14:00:00 2,1 -3,0 16 9 39 21 NNW 0,0
14.12.2018 13:00:00 1,2 -2,7 13 7 34 18 NW -
14.12.2018 12:00:00 0,8 -3,0 16 9 35 19 NNW 0,0
14.12.2018 11:00:00 1,2 -2,6 13 7 34 18 NNW 0,0
14.12.2018 10:00:00 -0,3 -2,8 18 10 34 18 NW 0,0
14.12.2018 09:00:00 0,4 -2,3 4 2 16 9 NNW 0,0
14.12.2018 08:00:00 0,2 -2,3 5 3 26 14 NNW 0,0
14.12.2018 07:00:00 0,5 -1,7 8 4 16 9 NW -
14.12.2018 06:00:00 0,6 -2,0 8 4 18 10 N 0,0
14.12.2018 05:00:00 0,1 -2,1 2 1 26 14 W 0,0
14.12.2018 04:00:00 0,1 -2,0 15 8 26 14 NNW 0,0
14.12.2018 03:00:00 -0,5 -1,8 4 2 5 3 ESE 0,0
14.12.2018 02:00:00 -0,2 -1,9 2 1 5 3 NW 0,0
14.12.2018 01:00:00 -0,1 -2,3 2 1 8 4 SSW -
14.12.2018 00:00:00 0,1 -2,6 4 2 15 8 ESE 0,0
13.12.2018 23:00:00 0,1 -2,4 4 2 13 7 WNW 0,0
13.12.2018 22:00:00 -0,1 -2,5 4 2 9 5 N 0,0
13.12.2018 21:00:00 0,0 -3,0 2 1 16 9 SSE 0,0
13.12.2018 20:00:00 -0,3 -2,7 9 5 21 11 NNW 0,0
13.12.2018 19:00:00 0,4 -1,2 4 2 18 10 NNW -
13.12.2018 18:00:00 1,3 -0,6 2 1 9 5 E 0,0
13.12.2018 17:00:00 1,9 -1,2 0 0 8 4 N 0,0
13.12.2018 16:00:00 2,8 -1,4 2 1 8 4 WSW 0,0
13.12.2018 15:00:00 2,9 -1,8 0 0 9 5 N 0,0
13.12.2018 14:00:00 2,9 -1,3 0 0 22 12 N 0,0
13.12.2018 13:00:00 2,9 -1,7 15 8 34 18 SSW -
13.12.2018 12:00:00 3,3 -1,1 9 5 22 12 SSW 0,0
13.12.2018 11:00:00 3,7 -0,1 9 5 24 13 SSW 0,0
13.12.2018 10:00:00 1,0 -1,4 9 5 18 10 SSW 0,0
13.12.2018 09:00:00 0,1 -1,7 4 2 13 7 E 0,0
13.12.2018 08:00:00 -0,8 -1,9 2 1 8 4 NNE 0,0
13.12.2018 07:00:00 -1,9 -2,5 2 1 8 4 SW -
13.12.2018 06:00:00 -2,3 -3,0 2 1 5 3 E 0,0
13.12.2018 05:00:00 -2,8 -3,6 4 2 8 4 ESE 0,0
13.12.2018 04:00:00 -2,5 -3,2 2 1 5 3 NW 0,0
13.12.2018 03:00:00 -2,1 -3,2 0 0 8 4 N 0,0
13.12.2018 02:00:00 -1,2 -2,6 2 1 5 3 N 0,0
13.12.2018 01:00:00 -1,1 -2,7 0 0 5 3 N -
13.12.2018 00:00:00 -1,0 -2,6 4 2 8 4 SE 0,0
12.12.2018 23:00:00 -1,1 -2,8 0 0 8 4 N 0,0
12.12.2018 22:00:00 -1,2 -2,9 0 0 4 2 N 0,0
12.12.2018 21:00:00 -1,3 -3,0 0 0 4 2 N 0,0
12.12.2018 20:00:00 -1,3 -3,3 2 1 5 3 NNE 0,0
12.12.2018 19:00:00 -1,0 -3,4 0 0 8 4 N -
12.12.2018 18:00:00 -0,9 -3,6 0 0 5 3 N 0,0
12.12.2018 17:00:00 0,0 -3,9 4 2 15 8 N 0,0
12.12.2018 16:00:00 1,6 -3,1 5 3 13 7 WNW 0,0
12.12.2018 15:00:00 1,2 -4,1 2 1 8 4 WSW 0,0
12.12.2018 14:00:00 1,1 -4,6 2 1 13 7 WNW 0,2
12.12.2018 13:00:00 0,5 -3,8 4 2 15 8 NW -
12.12.2018 12:00:00 0,2 -4,4 4 2 9 5 SSW 0,0
12.12.2018 11:00:00 -1,3 -4,8 2 1 8 4 SSE 0,0
12.12.2018 10:00:00 -2,4 -4,7 4 2 8 4 SSE 0,0
12.12.2018 09:00:00 -5,4 -6,6 4 2 9 5 ESE 0,0
12.12.2018 08:00:00 -5,2 -6,9 4 2 9 5 ENE 0,0
12.12.2018 07:00:00 -5,0 -6,2 4 2 9 5 NE -
12.12.2018 06:00:00 -4,9 -6,1 5 3 9 5 ESE 0,0
12.12.2018 05:00:00 -4,0 -5,4 4 2 8 4 E 0,0
12.12.2018 04:00:00 -3,9 -5,4 2 1 8 4 NNE 0,0
12.12.2018 03:00:00 -3,7 -5,5 4 2 9 5 E 0,0
12.12.2018 02:00:00 -3,1 -5,4 4 2 18 10 ENE 0,0
12.12.2018 01:00:00 -2,2 -5,0 4 2 15 8 N -
12.12.2018 00:00:00 -2,4 -4,9 4 2 13 7 NNE 0,0
11.12.2018 23:00:00 -1,7 -4,7 4 2 13 7 NNE 0,0
11.12.2018 22:00:00 -1,2 -4,4 8 4 24 13 NNW 0,0
11.12.2018 21:00:00 -0,7 -3,7 11 6 22 12 NNW 0,0
11.12.2018 20:00:00 -0,1 -3,5 8 4 21 11 NNW 0,0
11.12.2018 19:00:00 0,4 -3,2 8 4 31 17 NNW -
11.12.2018 18:00:00 0,5 -3,2 11 6 28 15 NNW 0,0
11.12.2018 17:00:00 0,7 -3,4 5 3 37 20 N 0,0
11.12.2018 16:00:00 1,3 -3,0 15 8 34 18 NNW 0,0
11.12.2018 15:00:00 3,3 -2,7 11 6 31 17 NNW 0,6
11.12.2018 14:00:00 3,1 -2,2 9 5 31 17 N 0,8
11.12.2018 13:00:00 3,3 -1,8 13 7 37 20 NNW -
11.12.2018 12:00:00 1,1 -2,3 9 5 22 12 NW 0,2
11.12.2018 11:00:00 0,2 -1,9 11 6 29 16 NW 0,0
11.12.2018 10:00:00 0,2 -1,9 11 6 35 19 NW 0,0
11.12.2018 09:00:00 0,3 -2,4 11 6 44 24 NNW 0,0
11.12.2018 08:00:00 0,5 -2,4 18 10 63 34 N 0,0
11.12.2018 07:00:00 0,6 -2,5 11 6 63 34 NNW -
11.12.2018 06:00:00 0,8 -2,8 15 8 63 34 N 0,0

tt = Température de l'air
td = dewpoint
ff = Vitesse du vent
fx = gusts
dd = Direction du vent
rr = Quantités de précipitations

stations d'obs. à proximité